aviador You're here:

K2V5 Decoded Metar

in
Report Time2017-12-15 23:35:00
UTC Time2017-12-15 23:41:22
Flight Rules vfr VFR
Wind240° at 05 kt
W.Rank240° ranks 3
Current wind is below 240° avg. (6.1)
Visibility9999 m
Phenomena:N/A
Clouds:N/A
Expected CloudBase > 10,400 ft AGL from Temp-Dew spread
CeilingNone
Temp10°C
Dew Point-16°C (14% RH)
AAT4.8°C
QNH1011 hPa
Raw Report
METAR K2V5 152335Z AUTO 24005KT 10SM CLR 10/M16 A2985 RMK AO2=

Extra information for K2V5:More info

Social comments